Terminal Aerodrome Forecast
Issued by NWS

Home | Current Version | Previous Version | Text Only | Print | Product List | Glossary On
Versions: 1 2 3 4 5 6 7 8 9 10 11 12 13 14 15
000
FTUS46 KSEW 182334
TAFPAE
TAF
KPAE 182334Z 1900/1924 VRB03KT 3SM -RA BR BKN025 BKN035 OVC045
     FM190300 15010KT 5SM -SHRA BKN012 OVC030
     FM191300 17016G22KT 5SM BR VCSH OVC025
     FM192100 18009KT P6SM -SHRA BKN030 BKN070=

USA.gov is the U.S. government's official web portal to all federal, state and local government web resources and services.